sensor_id;sensor_type;location;lat;lon;timestamp;pressure;altitude;pressure_sealevel;temperature;humidity
5651;BME280;40241;52.684;9.758;2024-03-17T00:00:55;102132.97;;;4.08;56.02
5651;BME280;40241;52.684;9.758;2024-03-17T00:03:20;102132.22;;;4.08;56.08
5651;BME280;40241;52.684;9.758;2024-03-17T00:05:45;102131.13;;;4.05;56.22
5651;BME280;40241;52.684;9.758;2024-03-17T00:08:11;102129.56;;;4.04;56.08
5651;BME280;40241;52.684;9.758;2024-03-17T00:10:36;102131.22;;;4.02;56.18
5651;BME280;40241;52.684;9.758;2024-03-17T00:13:02;102129.78;;;3.97;56.21
5651;BME280;40241;52.684;9.758;2024-03-17T00:15:27;102121.22;;;3.95;56.33
5651;BME280;40241;52.684;9.758;2024-03-17T00:17:53;102119.38;;;3.92;56.43
5651;BME280;40241;52.684;9.758;2024-03-17T00:20:18;102129.56;;;3.92;56.30
5651;BME280;40241;52.684;9.758;2024-03-17T00:22:48;102126.81;;;3.92;56.35
5651;BME280;40241;52.684;9.758;2024-03-17T00:25:14;102125.28;;;3.91;56.50
5651;BME280;40241;52.684;9.758;2024-03-17T00:27:40;102133.16;;;3.89;56.39
5651;BME280;40241;52.684;9.758;2024-03-17T00:30:09;102132.03;;;3.86;56.49
5651;BME280;40241;52.684;9.758;2024-03-17T00:32:38;102133.69;;;3.84;56.54
5651;BME280;40241;52.684;9.758;2024-03-17T00:35:04;102125.13;;;3.82;56.34
5651;BME280;40241;52.684;9.758;2024-03-17T00:37:30;102124.06;;;3.79;56.44
5651;BME280;40241;52.684;9.758;2024-03-17T00:39:55;102131.91;;;3.77;56.64
5651;BME280;40241;52.684;9.758;2024-03-17T00:42:21;102127.31;;;3.74;56.28
5651;BME280;40241;52.684;9.758;2024-03-17T00:44:46;102131.34;;;3.70;56.39
5651;BME280;40241;52.684;9.758;2024-03-17T00:47:11;102124.44;;;3.65;56.58
5651;BME280;40241;52.684;9.758;2024-03-17T00:49:36;102128.03;;;3.62;56.42
5651;BME280;40241;52.684;9.758;2024-03-17T00:52:02;102135.56;;;3.58;56.38
5651;BME280;40241;52.684;9.758;2024-03-17T00:54:27;102125.56;;;3.52;56.24
5651;BME280;40241;52.684;9.758;2024-03-17T00:56:52;102134.22;;;3.50;56.66
5651;BME280;40241;52.684;9.758;2024-03-17T00:59:18;102136.63;;;3.48;56.79
5651;BME280;40241;52.684;9.758;2024-03-17T01:01:43;102137.06;;;3.47;56.86
5651;BME280;40241;52.684;9.758;2024-03-17T01:04:09;102139.03;;;3.46;56.67
5651;BME280;40241;52.684;9.758;2024-03-17T01:06:34;102134.41;;;3.43;56.78
5651;BME280;40241;52.684;9.758;2024-03-17T01:08:59;102143.03;;;3.42;56.94
5651;BME280;40241;52.684;9.758;2024-03-17T01:11:25;102137.25;;;3.40;56.70
5651;BME280;40241;52.684;9.758;2024-03-17T01:13:50;102139.63;;;3.38;56.87
5651;BME280;40241;52.684;9.758;2024-03-17T01:16:16;102134.56;;;3.36;57.08
5651;BME280;40241;52.684;9.758;2024-03-17T01:18:41;102139.72;;;3.34;56.79
5651;BME280;40241;52.684;9.758;2024-03-17T01:21:08;102132.72;;;3.33;56.84
5651;BME280;40241;52.684;9.758;2024-03-17T01:23:34;102132.38;;;3.31;57.10
5651;BME280;40241;52.684;9.758;2024-03-17T01:25:59;102128.53;;;3.28;56.91
5651;BME280;40241;52.684;9.758;2024-03-17T01:28:24;102120.94;;;3.20;56.76
5651;BME280;40241;52.684;9.758;2024-03-17T01:30:50;102123.34;;;3.18;56.67
5651;BME280;40241;52.684;9.758;2024-03-17T01:33:15;102115.66;;;3.13;56.86
5651;BME280;40241;52.684;9.758;2024-03-17T01:35:42;102121.63;;;3.08;56.76
5651;BME280;40241;52.684;9.758;2024-03-17T01:38:08;102115.16;;;3.02;56.85
5651;BME280;40241;52.684;9.758;2024-03-17T01:40:35;102118.38;;;2.97;57.04
5651;BME280;40241;52.684;9.758;2024-03-17T01:43:01;102120.03;;;2.94;57.15
5651;BME280;40241;52.684;9.758;2024-03-17T01:45:31;102115.41;;;2.91;56.88
5651;BME280;40241;52.684;9.758;2024-03-17T01:47:58;102112.34;;;2.89;56.85
5651;BME280;40241;52.684;9.758;2024-03-17T01:50:26;102107.38;;;2.84;57.27
5651;BME280;40241;52.684;9.758;2024-03-17T01:52:56;102105.91;;;2.80;56.81
5651;BME280;40241;52.684;9.758;2024-03-17T01:55:21;102112.59;;;2.79;56.72
5651;BME280;40241;52.684;9.758;2024-03-17T01:57:48;102109.16;;;2.75;57.05
5651;BME280;40241;52.684;9.758;2024-03-17T02:00:14;102110.03;;;2.72;56.87
5651;BME280;40241;52.684;9.758;2024-03-17T02:02:40;102107.34;;;2.68;57.04
5651;BME280;40241;52.684;9.758;2024-03-17T02:05:05;102111.41;;;2.64;57.02
5651;BME280;40241;52.684;9.758;2024-03-17T02:07:31;102114.97;;;2.61;57.16
5651;BME280;40241;52.684;9.758;2024-03-17T02:09:56;102115.81;;;2.57;57.00
5651;BME280;40241;52.684;9.758;2024-03-17T02:12:23;102119.41;;;2.54;56.91
5651;BME280;40241;52.684;9.758;2024-03-17T02:14:48;102126.81;;;2.54;57.26
5651;BME280;40241;52.684;9.758;2024-03-17T02:17:13;102128.44;;;2.51;57.03
5651;BME280;40241;52.684;9.758;2024-03-17T02:19:39;102121.09;;;2.48;57.04
5651;BME280;40241;52.684;9.758;2024-03-17T02:22:12;102122.78;;;2.42;57.03
5651;BME280;40241;52.684;9.758;2024-03-17T02:24:38;102121.25;;;2.41;56.97
5651;BME280;40241;52.684;9.758;2024-03-17T02:27:03;102126.03;;;2.37;57.27
5651;BME280;40241;52.684;9.758;2024-03-17T02:29:29;102119.47;;;2.35;57.14
5651;BME280;40241;52.684;9.758;2024-03-17T02:31:54;102115.94;;;2.34;57.45
5651;BME280;40241;52.684;9.758;2024-03-17T02:34:20;102120.69;;;2.30;57.03
5651;BME280;40241;52.684;9.758;2024-03-17T02:36:45;102118.81;;;2.27;57.19
5651;BME280;40241;52.684;9.758;2024-03-17T02:39:10;102119.22;;;2.26;57.16
5651;BME280;40241;52.684;9.758;2024-03-17T02:41:54;102122.03;;;2.22;57.19
5651;BME280;40241;52.684;9.758;2024-03-17T02:44:19;102125.19;;;2.21;57.21
5651;BME280;40241;52.684;9.758;2024-03-17T02:46:45;102122.53;;;2.17;57.12
5651;BME280;40241;52.684;9.758;2024-03-17T02:49:10;102121.84;;;2.13;56.91
5651;BME280;40241;52.684;9.758;2024-03-17T02:51:39;102122.69;;;2.10;56.92
5651;BME280;40241;52.684;9.758;2024-03-17T02:54:04;102127.44;;;2.06;57.23
5651;BME280;40241;52.684;9.758;2024-03-17T02:56:31;102122.91;;;2.00;56.92
5651;BME280;40241;52.684;9.758;2024-03-17T02:58:57;102126.13;;;1.95;57.45
5651;BME280;40241;52.684;9.758;2024-03-17T03:01:22;102123.47;;;1.91;56.92
5651;BME280;40241;52.684;9.758;2024-03-17T03:03:47;102119.97;;;1.91;57.20
5651;BME280;40241;52.684;9.758;2024-03-17T03:06:13;102111.88;;;1.87;57.52
5651;BME280;40241;52.684;9.758;2024-03-17T03:08:39;102114.25;;;1.85;57.12
5651;BME280;40241;52.684;9.758;2024-03-17T03:11:10;102126.34;;;1.84;57.48
5651;BME280;40241;52.684;9.758;2024-03-17T03:13:41;102115.06;;;1.82;57.49
5651;BME280;40241;52.684;9.758;2024-03-17T03:16:07;102120.59;;;1.78;56.97
5651;BME280;40241;52.684;9.758;2024-03-17T03:18:34;102119.47;;;1.76;57.13
5651;BME280;40241;52.684;9.758;2024-03-17T03:20:59;102122.63;;;1.74;57.13
5651;BME280;40241;52.684;9.758;2024-03-17T03:23:25;102120.78;;;1.68;57.30
5651;BME280;40241;52.684;9.758;2024-03-17T03:25:59;102119.25;;;1.67;57.38
5651;BME280;40241;52.684;9.758;2024-03-17T03:28:26;102118.91;;;1.65;57.50
5651;BME280;40241;52.684;9.758;2024-03-17T03:30:52;102121.00;;;1.57;57.13
5651;BME280;40241;52.684;9.758;2024-03-17T03:33:19;102144.97;;;1.46;57.31
5651;BME280;40241;52.684;9.758;2024-03-17T03:35:44;102112.31;;;1.43;57.27
5651;BME280;40241;52.684;9.758;2024-03-17T03:38:10;102113.09;;;1.43;57.31
5651;BME280;40241;52.684;9.758;2024-03-17T03:40:36;102112.31;;;1.43;57.39
5651;BME280;40241;52.684;9.758;2024-03-17T03:43:01;102118.94;;;1.42;57.83
5651;BME280;40241;52.684;9.758;2024-03-17T03:45:27;102104.97;;;1.40;57.24
5651;BME280;40241;52.684;9.758;2024-03-17T03:47:53;102112.78;;;1.38;57.69
5651;BME280;40241;52.684;9.758;2024-03-17T03:50:20;102114.75;;;1.37;57.42
5651;BME280;40241;52.684;9.758;2024-03-17T03:52:46;102110.13;;;1.34;57.54
5651;BME280;40241;52.684;9.758;2024-03-17T03:55:12;102099.63;;;1.33;57.46
5651;BME280;40241;52.684;9.758;2024-03-17T03:57:41;102110.53;;;1.33;57.44
5651;BME280;40241;52.684;9.758;2024-03-17T04:00:07;102110.19;;;1.31;57.52
5651;BME280;40241;52.684;9.758;2024-03-17T04:02:38;102107.09;;;1.29;57.56
5651;BME280;40241;52.684;9.758;2024-03-17T04:05:04;102109.09;;;1.28;57.47
5651;BME280;40241;52.684;9.758;2024-03-17T04:07:29;102115.72;;;1.27;57.49
5651;BME280;40241;52.684;9.758;2024-03-17T04:09:54;102121.97;;;1.24;57.53
5651;BME280;40241;52.684;9.758;2024-03-17T04:12:20;102130.59;;;1.23;57.35
5651;BME280;40241;52.684;9.758;2024-03-17T04:14:45;102126.34;;;1.22;57.25
5651;BME280;40241;52.684;9.758;2024-03-17T04:17:12;102125.94;;;1.20;57.49
5651;BME280;40241;52.684;9.758;2024-03-17T04:19:37;102126.38;;;1.18;57.42
5651;BME280;40241;52.684;9.758;2024-03-17T04:22:02;102125.25;;;1.16;57.65
5651;BME280;40241;52.684;9.758;2024-03-17T04:24:28;102120.66;;;1.13;57.40
5651;BME280;40241;52.684;9.758;2024-03-17T04:26:53;102126.09;;;1.13;57.85
5651;BME280;40241;52.684;9.758;2024-03-17T04:29:18;102126.56;;;1.07;57.36
5651;BME280;40241;52.684;9.758;2024-03-17T04:31:45;102125.38;;;1.09;57.69
5651;BME280;40241;52.684;9.758;2024-03-17T04:34:14;102131.59;;;1.09;57.46
5651;BME280;40241;52.684;9.758;2024-03-17T04:36:40;102126.13;;;1.09;57.96
5651;BME280;40241;52.684;9.758;2024-03-17T04:39:05;102136.28;;;1.09;57.89
5651;BME280;40241;52.684;9.758;2024-03-17T04:41:33;102127.69;;;1.10;57.77
5651;BME280;40241;52.684;9.758;2024-03-17T04:43:59;102142.09;;;1.11;58.16
5651;BME280;40241;52.684;9.758;2024-03-17T04:46:24;102130.06;;;1.08;57.74
5651;BME280;40241;52.684;9.758;2024-03-17T04:48:51;102141.34;;;1.06;57.34
5651;BME280;40241;52.684;9.758;2024-03-17T04:51:17;102141.78;;;1.05;57.36
5651;BME280;40241;52.684;9.758;2024-03-17T04:53:43;102139.47;;;1.03;57.50
5651;BME280;40241;52.684;9.758;2024-03-17T04:56:08;102133.69;;;1.01;57.53
5651;BME280;40241;52.684;9.758;2024-03-17T04:58:34;102136.09;;;0.96;57.77
5651;BME280;40241;52.684;9.758;2024-03-17T05:01:04;102136.16;;;0.92;57.68
5651;BME280;40241;52.684;9.758;2024-03-17T05:03:29;102137.31;;;0.91;57.74
5651;BME280;40241;52.684;9.758;2024-03-17T05:06:02;102140.03;;;0.91;57.82
5651;BME280;40241;52.684;9.758;2024-03-17T05:08:28;102143.25;;;0.86;57.84
5651;BME280;40241;52.684;9.758;2024-03-17T05:13:24;102152.25;;;0.83;57.71
5651;BME280;40241;52.684;9.758;2024-03-17T05:15:49;102168.59;;;0.83;57.93
5651;BME280;40241;52.684;9.758;2024-03-17T05:18:14;102158.91;;;0.82;57.67
5651;BME280;40241;52.684;9.758;2024-03-17T05:20:40;102159.63;;;0.83;57.49
5651;BME280;40241;52.684;9.758;2024-03-17T05:23:05;102163.22;;;0.80;57.60
5651;BME280;40241;52.684;9.758;2024-03-17T05:25:30;102173.31;;;0.79;57.88
5651;BME280;40241;52.684;9.758;2024-03-17T05:28:01;102169.41;;;0.80;57.75
5651;BME280;40241;52.684;9.758;2024-03-17T05:30:27;102172.91;;;0.81;57.71
5651;BME280;40241;52.684;9.758;2024-03-17T05:32:52;102177.19;;;0.82;57.73
5651;BME280;40241;52.684;9.758;2024-03-17T05:35:17;102179.91;;;0.82;57.70
5651;BME280;40241;52.684;9.758;2024-03-17T05:37:42;102187.66;;;0.83;58.05
5651;BME280;40241;52.684;9.758;2024-03-17T05:40:10;102180.97;;;0.88;57.76
5651;BME280;40241;52.684;9.758;2024-03-17T05:42:37;102192.19;;;0.93;57.75
5651;BME280;40241;52.684;9.758;2024-03-17T05:45:03;102186.69;;;0.97;57.64
5651;BME280;40241;52.684;9.758;2024-03-17T05:47:28;102188.56;;;1.00;57.94
5651;BME280;40241;52.684;9.758;2024-03-17T05:49:54;102181.13;;;1.04;57.78
5651;BME280;40241;52.684;9.758;2024-03-17T05:52:21;102184.56;;;1.08;57.60
5651;BME280;40241;52.684;9.758;2024-03-17T05:54:46;102181.78;;;1.12;58.00
5651;BME280;40241;52.684;9.758;2024-03-17T05:57:12;102187.53;;;1.17;57.86
5651;BME280;40241;52.684;9.758;2024-03-17T05:59:39;102180.44;;;1.23;57.98
5651;BME280;40241;52.684;9.758;2024-03-17T06:02:04;102182.63;;;1.32;57.85
5651;BME280;40241;52.684;9.758;2024-03-17T06:04:30;102189.13;;;1.38;58.13
5651;BME280;40241;52.684;9.758;2024-03-17T06:06:55;102182.00;;;1.44;57.92
5651;BME280;40241;52.684;9.758;2024-03-17T06:09:20;102181.53;;;1.49;57.93
5651;BME280;40241;52.684;9.758;2024-03-17T06:11:46;102177.16;;;1.55;57.80
5651;BME280;40241;52.684;9.758;2024-03-17T06:14:11;102182.91;;;1.60;57.96
5651;BME280;40241;52.684;9.758;2024-03-17T06:16:38;102185.91;;;1.66;58.16
5651;BME280;40241;52.684;9.758;2024-03-17T06:19:03;102182.38;;;1.69;57.82
5651;BME280;40241;52.684;9.758;2024-03-17T06:21:29;102192.81;;;1.74;57.67
5651;BME280;40241;52.684;9.758;2024-03-17T06:23:54;102188.53;;;1.73;57.82
5651;BME280;40241;52.684;9.758;2024-03-17T06:26:19;102183.41;;;1.75;57.95
5651;BME280;40241;52.684;9.758;2024-03-17T06:28:46;102200.00;;;1.84;57.92
5651;BME280;40241;52.684;9.758;2024-03-17T06:31:11;102198.84;;;1.85;58.22
5651;BME280;40241;52.684;9.758;2024-03-17T06:33:36;102190.56;;;1.89;58.10
5651;BME280;40241;52.684;9.758;2024-03-17T06:36:03;102192.41;;;1.95;58.00
5651;BME280;40241;52.684;9.758;2024-03-17T06:38:32;102195.34;;;2.04;58.19
5651;BME280;40241;52.684;9.758;2024-03-17T06:40:57;102195.97;;;2.12;57.93
5651;BME280;40241;52.684;9.758;2024-03-17T06:43:23;102201.72;;;2.17;57.96
5651;BME280;40241;52.684;9.758;2024-03-17T06:45:58;102195.41;;;2.20;58.08
5651;BME280;40241;52.684;9.758;2024-03-17T06:48:24;102198.56;;;2.19;58.00
5651;BME280;40241;52.684;9.758;2024-03-17T06:50:50;102199.94;;;2.27;57.99
5651;BME280;40241;52.684;9.758;2024-03-17T06:53:23;102195.56;;;2.33;58.26
5651;BME280;40241;52.684;9.758;2024-03-17T06:55:53;102197.16;;;2.30;58.13
5651;BME280;40241;52.684;9.758;2024-03-17T06:58:19;102196.38;;;2.30;57.92
5651;BME280;40241;52.684;9.758;2024-03-17T07:00:58;102196.97;;;2.41;58.32
5651;BME280;40241;52.684;9.758;2024-03-17T07:03:25;102191.63;;;2.53;58.52
5651;BME280;40241;52.684;9.758;2024-03-17T07:05:54;102186.69;;;2.65;58.40
5651;BME280;40241;52.684;9.758;2024-03-17T07:08:20;102188.59;;;2.68;58.25
5651;BME280;40241;52.684;9.758;2024-03-17T07:13:23;102185.94;;;2.80;58.47
5651;BME280;40241;52.684;9.758;2024-03-17T07:15:49;102181.06;;;2.88;58.35
5651;BME280;40241;52.684;9.758;2024-03-17T07:18:14;102187.25;;;2.92;58.49
5651;BME280;40241;52.684;9.758;2024-03-17T07:20:40;102187.66;;;2.90;58.49
5651;BME280;40241;52.684;9.758;2024-03-17T07:23:05;102181.78;;;2.92;58.71
5651;BME280;40241;52.684;9.758;2024-03-17T07:25:30;102173.94;;;2.94;58.29
5651;BME280;40241;52.684;9.758;2024-03-17T07:27:55;102176.66;;;2.94;58.28
5651;BME280;40241;52.684;9.758;2024-03-17T07:30:21;102177.44;;;2.94;58.66
5651;BME280;40241;52.684;9.758;2024-03-17T07:32:46;102172.91;;;3.04;58.51
5651;BME280;40241;52.684;9.758;2024-03-17T07:35:12;102175.81;;;3.13;58.76
5651;BME280;40241;52.684;9.758;2024-03-17T07:37:37;102180.78;;;3.18;58.33
5651;BME280;40241;52.684;9.758;2024-03-17T07:40:05;102182.28;;;3.19;58.56
5651;BME280;40241;52.684;9.758;2024-03-17T07:42:32;102169.28;;;3.23;58.79
5651;BME280;40241;52.684;9.758;2024-03-17T07:44:58;102174.53;;;3.34;58.65
5651;BME280;40241;52.684;9.758;2024-03-17T07:47:23;102178.50;;;3.45;58.88
5651;BME280;40241;52.684;9.758;2024-03-17T07:49:48;102179.88;;;3.53;58.85
5651;BME280;40241;52.684;9.758;2024-03-17T07:52:14;102181.56;;;3.63;58.38
5651;BME280;40241;52.684;9.758;2024-03-17T07:54:39;102180.63;;;3.70;58.29
5651;BME280;40241;52.684;9.758;2024-03-17T07:57:04;102175.03;;;3.73;58.33
5651;BME280;40241;52.684;9.758;2024-03-17T07:59:30;102185.03;;;3.80;58.49
5651;BME280;40241;52.684;9.758;2024-03-17T08:01:56;102186.72;;;3.90;58.22
5651;BME280;40241;52.684;9.758;2024-03-17T08:04:22;102194.06;;;3.93;58.64
5651;BME280;40241;52.684;9.758;2024-03-17T08:06:47;102198.56;;;3.99;58.52
5651;BME280;40241;52.684;9.758;2024-03-17T08:09:12;102198.28;;;4.10;58.68
5651;BME280;40241;52.684;9.758;2024-03-17T08:11:38;102196.44;;;4.20;58.67
5651;BME280;40241;52.684;9.758;2024-03-17T08:14:11;102199.13;;;4.36;58.56
5651;BME280;40241;52.684;9.758;2024-03-17T08:16:36;102189.47;;;4.44;58.85
5651;BME280;40241;52.684;9.758;2024-03-17T08:19:02;102193.00;;;4.57;59.11
5651;BME280;40241;52.684;9.758;2024-03-17T08:21:28;102187.19;;;4.67;58.67
5651;BME280;40241;52.684;9.758;2024-03-17T08:23:55;102192.38;;;4.78;58.87
5651;BME280;40241;52.684;9.758;2024-03-17T08:26:20;102188.09;;;4.90;58.85
5651;BME280;40241;52.684;9.758;2024-03-17T08:28:45;102184.63;;;5.02;58.84
5651;BME280;40241;52.684;9.758;2024-03-17T08:31:11;102178.78;;;5.12;58.80
5651;BME280;40241;52.684;9.758;2024-03-17T08:33:37;102188.63;;;5.22;59.00
5651;BME280;40241;52.684;9.758;2024-03-17T08:36:05;102177.41;;;5.29;59.04
5651;BME280;40241;52.684;9.758;2024-03-17T08:38:31;102185.63;;;5.42;59.36
5651;BME280;40241;52.684;9.758;2024-03-17T08:41:07;102189.63;;;5.63;59.62
5651;BME280;40241;52.684;9.758;2024-03-17T08:43:34;102184.16;;;5.84;59.45
5651;BME280;40241;52.684;9.758;2024-03-17T08:46:02;102181.28;;;6.09;59.33
5651;BME280;40241;52.684;9.758;2024-03-17T08:48:29;102184.63;;;6.35;59.05
5651;BME280;40241;52.684;9.758;2024-03-17T08:50:56;102178.97;;;6.60;58.69
5651;BME280;40241;52.684;9.758;2024-03-17T08:53:22;102178.66;;;6.89;58.63
5651;BME280;40241;52.684;9.758;2024-03-17T08:55:48;102178.91;;;7.22;58.65
5651;BME280;40241;52.684;9.758;2024-03-17T08:58:14;102178.63;;;7.47;58.05
5651;BME280;40241;52.684;9.758;2024-03-17T09:00:40;102182.00;;;7.78;58.02
5651;BME280;40241;52.684;9.758;2024-03-17T09:03:06;102184.59;;;8.09;57.60
5651;BME280;40241;52.684;9.758;2024-03-17T09:05:35;102178.59;;;8.37;57.30
5651;BME280;40241;52.684;9.758;2024-03-17T09:08:00;102180.50;;;8.64;56.75
5651;BME280;40241;52.684;9.758;2024-03-17T09:10:26;102175.47;;;8.86;56.21
5651;BME280;40241;52.684;9.758;2024-03-17T09:12:51;102167.97;;;9.10;55.98
5651;BME280;40241;52.684;9.758;2024-03-17T09:15:16;102168.75;;;9.35;55.80
5651;BME280;40241;52.684;9.758;2024-03-17T09:17:42;102181.09;;;9.48;55.31
5651;BME280;40241;52.684;9.758;2024-03-17T09:20:11;102177.56;;;9.48;54.71
5651;BME280;40241;52.684;9.758;2024-03-17T09:22:37;102176.09;;;9.38;54.83
5651;BME280;40241;52.684;9.758;2024-03-17T09:25:06;102178.34;;;9.24;55.26
5651;BME280;40241;52.684;9.758;2024-03-17T09:27:32;102176.34;;;9.25;55.47
5651;BME280;40241;52.684;9.758;2024-03-17T09:29:59;102186.16;;;9.26;55.31
5651;BME280;40241;52.684;9.758;2024-03-17T09:32:24;102185.28;;;9.20;55.15
5651;BME280;40241;52.684;9.758;2024-03-17T09:34:50;102187.44;;;9.16;55.00
5651;BME280;40241;52.684;9.758;2024-03-17T09:37:15;102185.91;;;9.15;54.78
5651;BME280;40241;52.684;9.758;2024-03-17T09:39:47;102195.09;;;9.21;54.60
5651;BME280;40241;52.684;9.758;2024-03-17T09:42:17;102194.00;;;9.27;54.50
5651;BME280;40241;52.684;9.758;2024-03-17T09:44:45;102195.78;;;9.30;53.97
5651;BME280;40241;52.684;9.758;2024-03-17T09:47:18;102202.97;;;9.37;53.42
5651;BME280;40241;52.684;9.758;2024-03-17T09:49:44;102195.19;;;9.50;54.15
5651;BME280;40241;52.684;9.758;2024-03-17T09:52:19;102197.00;;;9.62;53.76
5651;BME280;40241;52.684;9.758;2024-03-17T09:54:45;102192.91;;;9.72;53.69
5651;BME280;40241;52.684;9.758;2024-03-17T09:57:16;102190.38;;;9.83;53.36
5651;BME280;40241;52.684;9.758;2024-03-17T09:59:42;102185.03;;;9.94;53.47
5651;BME280;40241;52.684;9.758;2024-03-17T10:02:16;102183.91;;;10.01;52.41
5651;BME280;40241;52.684;9.758;2024-03-17T10:04:43;102190.88;;;9.96;53.07
5651;BME280;40241;52.684;9.758;2024-03-17T10:07:08;102186.28;;;9.93;53.07
5651;BME280;40241;52.684;9.758;2024-03-17T10:09:34;102184.41;;;9.99;53.11
5651;BME280;40241;52.684;9.758;2024-03-17T10:11:59;102180.09;;;9.98;52.81
5651;BME280;40241;52.684;9.758;2024-03-17T10:14:24;102185.81;;;9.95;52.71
5651;BME280;40241;52.684;9.758;2024-03-17T10:16:50;102179.88;;;10.02;52.83
5651;BME280;40241;52.684;9.758;2024-03-17T10:19:22;102188.50;;;10.04;52.46
5651;BME280;40241;52.684;9.758;2024-03-17T10:21:48;102181.06;;;10.10;52.88
5651;BME280;40241;52.684;9.758;2024-03-17T10:26:46;102187.44;;;10.16;52.48
5651;BME280;40241;52.684;9.758;2024-03-17T10:29:31;102184.69;;;10.16;51.04
5651;BME280;40241;52.684;9.758;2024-03-17T10:32:02;102175.34;;;10.14;52.25
5651;BME280;40241;52.684;9.758;2024-03-17T10:34:29;102184.47;;;10.20;52.40
5651;BME280;40241;52.684;9.758;2024-03-17T10:37:09;102171.53;;;10.26;51.36
5651;BME280;40241;52.684;9.758;2024-03-17T10:39:38;102177.72;;;10.35;51.74
5651;BME280;40241;52.684;9.758;2024-03-17T10:42:05;102187.63;;;10.42;51.52
5651;BME280;40241;52.684;9.758;2024-03-17T10:44:31;102178.19;;;10.48;51.44
5651;BME280;40241;52.684;9.758;2024-03-17T10:46:59;102177.22;;;10.51;50.80
5651;BME280;40241;52.684;9.758;2024-03-17T10:49:31;102176.34;;;10.60;50.76
5651;BME280;40241;52.684;9.758;2024-03-17T10:51:59;102181.03;;;10.68;51.06
5651;BME280;40241;52.684;9.758;2024-03-17T10:54:26;102181.69;;;10.78;50.80
5651;BME280;40241;52.684;9.758;2024-03-17T10:56:55;102184.34;;;10.72;49.59
5651;BME280;40241;52.684;9.758;2024-03-17T10:59:26;102183.72;;;10.48;49.99
5651;BME280;40241;52.684;9.758;2024-03-17T11:01:54;102183.44;;;10.46;50.05
5651;BME280;40241;52.684;9.758;2024-03-17T11:04:21;102187.81;;;10.53;50.45
5651;BME280;40241;52.684;9.758;2024-03-17T11:06:47;102179.69;;;10.64;49.58
5651;BME280;40241;52.684;9.758;2024-03-17T11:09:15;102169.03;;;10.42;48.99
5651;BME280;40241;52.684;9.758;2024-03-17T11:11:41;102172.66;;;10.48;50.12
5651;BME280;40241;52.684;9.758;2024-03-17T11:14:18;102170.31;;;10.76;49.12
5651;BME280;40241;52.684;9.758;2024-03-17T11:16:51;102161.13;;;10.99;49.52
5651;BME280;40241;52.684;9.758;2024-03-17T11:19:16;102160.44;;;11.24;49.49
5651;BME280;40241;52.684;9.758;2024-03-17T11:21:42;102157.75;;;11.50;49.12
5651;BME280;40241;52.684;9.758;2024-03-17T11:24:19;102152.22;;;11.76;47.53
5651;BME280;40241;52.684;9.758;2024-03-17T11:26:45;102165.34;;;12.01;48.66
5651;BME280;40241;52.684;9.758;2024-03-17T11:29:29;102149.25;;;12.31;46.05
5651;BME280;40241;52.684;9.758;2024-03-17T11:31:54;102145.41;;;12.59;47.69
5651;BME280;40241;52.684;9.758;2024-03-17T11:34:37;102149.16;;;12.93;45.83
5651;BME280;40241;52.684;9.758;2024-03-17T11:37:04;102141.69;;;13.10;47.06
5651;BME280;40241;52.684;9.758;2024-03-17T11:39:47;102149.63;;;13.28;45.39
5651;BME280;40241;52.684;9.758;2024-03-17T11:42:14;102145.91;;;13.48;46.78
5651;BME280;40241;52.684;9.758;2024-03-17T11:45:14;102144.19;;;13.72;43.96
5651;BME280;40241;52.684;9.758;2024-03-17T11:47:41;102143.47;;;13.89;46.00
5651;BME280;40241;52.684;9.758;2024-03-17T11:50:10;102142.50;;;14.08;45.58
5651;BME280;40241;52.684;9.758;2024-03-17T11:52:37;102139.22;;;14.21;45.25
5651;BME280;40241;52.684;9.758;2024-03-17T11:55:02;102137.19;;;14.32;45.02
5651;BME280;40241;52.684;9.758;2024-03-17T11:57:28;102138.22;;;14.52;44.95
5651;BME280;40241;52.684;9.758;2024-03-17T11:59:55;102145.78;;;14.62;44.77
5651;BME280;40241;52.684;9.758;2024-03-17T12:04:49;102134.59;;;14.79;44.33
5651;BME280;40241;52.684;9.758;2024-03-17T12:07:19;102123.22;;;14.71;42.87
5651;BME280;40241;52.684;9.758;2024-03-17T12:09:47;102125.72;;;14.86;44.22
5651;BME280;40241;52.684;9.758;2024-03-17T12:12:17;102131.25;;;15.02;43.26
5651;BME280;40241;52.684;9.758;2024-03-17T12:14:43;102122.41;;;15.04;43.34
5651;BME280;40241;52.684;9.758;2024-03-17T12:17:10;102104.66;;;15.01;43.56
5651;BME280;40241;52.684;9.758;2024-03-17T12:19:37;102100.53;;;15.19;43.61
5651;BME280;40241;52.684;9.758;2024-03-17T12:22:06;102097.69;;;15.30;43.56
5651;BME280;40241;52.684;9.758;2024-03-17T12:24:34;102088.78;;;15.37;43.39
5651;BME280;40241;52.684;9.758;2024-03-17T12:27:01;102092.63;;;15.29;43.10
5651;BME280;40241;52.684;9.758;2024-03-17T12:29:31;102092.63;;;15.29;43.12
5651;BME280;40241;52.684;9.758;2024-03-17T12:32:16;102089.41;;;15.13;42.25
5651;BME280;40241;52.684;9.758;2024-03-17T12:34:45;102087.69;;;14.99;43.67
5651;BME280;40241;52.684;9.758;2024-03-17T12:37:22;102078.28;;;15.08;41.09
5651;BME280;40241;52.684;9.758;2024-03-17T12:39:48;102077.31;;;15.00;42.18
5651;BME280;40241;52.684;9.758;2024-03-17T12:42:23;102073.25;;;14.90;41.59
5651;BME280;40241;52.684;9.758;2024-03-17T12:44:50;102074.75;;;15.07;43.01
5651;BME280;40241;52.684;9.758;2024-03-17T12:47:26;102064.06;;;15.17;42.87
5651;BME280;40241;52.684;9.758;2024-03-17T12:49:53;102068.81;;;15.28;42.51
5651;BME280;40241;52.684;9.758;2024-03-17T12:52:32;102049.47;;;14.89;41.08
5651;BME280;40241;52.684;9.758;2024-03-17T12:55:05;102054.78;;;14.87;42.05
5651;BME280;40241;52.684;9.758;2024-03-17T12:57:51;102055.53;;;14.93;42.47
5651;BME280;40241;52.684;9.758;2024-03-17T13:00:35;102055.03;;;14.89;42.58
5651;BME280;40241;52.684;9.758;2024-03-17T13:03:02;102062.09;;;15.06;42.65
5651;BME280;40241;52.684;9.758;2024-03-17T13:05:29;102063.22;;;15.28;42.60
5651;BME280;40241;52.684;9.758;2024-03-17T13:07:55;102064.19;;;15.36;41.68
5651;BME280;40241;52.684;9.758;2024-03-17T13:10:22;102070.13;;;15.21;41.75
5651;BME280;40241;52.684;9.758;2024-03-17T13:12:58;102069.28;;;15.32;40.62
5651;BME280;40241;52.684;9.758;2024-03-17T13:15:24;102055.56;;;15.39;41.38
5651;BME280;40241;52.684;9.758;2024-03-17T13:17:49;102065.91;;;15.44;41.63